Time;durP1;ratioP1;P1;durP2;ratioP2;P2;SDS_P1;SDS_P2;PMS_P1;PMS_P2;Temp;Humidity;BMP_temperature;BMP_pressure;BME280_temperature;BME280_humidity;BME280_pressure;Samples;Min_cycle;Max_cycle;Signal;HPM_P1;HPM_P2
2022/07/12 00:01:10;;;;;;;5.63;3.25;;;;;;;;;;10471182;28;20500;-77
2022/07/12 00:06:14;;;;;;;6.03;3.40;;;;;;;;;;10471440;28;20048;-78
2022/07/12 00:11:18;;;;;;;5.53;3.22;;;;;;;;;;10483178;28;20848;-77
2022/07/12 00:16:21;;;;;;;4.82;2.97;;;;;;;;;;10491269;28;20461;-76
2022/07/12 00:21:24;;;;;;;6.53;3.30;;;;;;;;;;10495732;28;20036;-77
2022/07/12 00:26:28;;;;;;;5.75;3.45;;;;;;;;;;10478314;28;20090;-76
2022/07/12 00:31:38;;;;;;;8.23;3.45;;;;;;;;;;10487691;28;20037;-77
2022/07/12 00:36:42;;;;;;;5.65;3.47;;;;;;;;;;10461839;28;20113;-76
2022/07/12 00:41:48;;;;;;;6.80;3.80;;;;;;;;;;10479452;28;20674;-75
2022/07/12 00:46:51;;;;;;;7.28;3.60;;;;;;;;;;10487896;28;20063;-76
2022/07/12 00:51:55;;;;;;;5.83;3.73;;;;;;;;;;10481671;28;21863;-76
2022/07/12 00:57:00;;;;;;;6.55;3.40;;;;;;;;;;10466137;28;20094;-77
2022/07/12 01:02:03;;;;;;;6.72;3.65;;;;;;;;;;10498604;28;20090;-76
2022/07/12 01:07:06;;;;;;;7.20;3.78;;;;;;;;;;10477304;28;20056;-76
2022/07/12 01:12:10;;;;;;;6.75;3.50;;;;;;;;;;10471821;28;20068;-77
2022/07/12 01:17:21;;;;;;;5.72;3.30;;;;;;;;;;10479377;28;20048;-78
2022/07/12 01:22:26;;;;;;;6.40;3.50;;;;;;;;;;10485640;28;20446;-78
2022/07/12 01:27:40;;;;;;;6.32;3.17;;;;;;;;;;10486404;28;20063;-77
2022/07/12 01:32:44;;;;;;;5.43;3.38;;;;;;;;;;10482626;28;20098;-76
2022/07/12 01:38:02;;;;;;;7.97;3.50;;;;;;;;;;10473863;28;20036;-76
2022/07/12 01:43:24;;;;;;;6.80;3.50;;;;;;;;;;10477394;28;20123;-75
2022/07/12 01:48:26;;;;;;;5.18;3.38;;;;;;;;;;10471314;28;20076;-76
2022/07/12 01:53:30;;;;;;;7.18;3.80;;;;;;;;;;10473766;28;20199;-77
2022/07/12 01:58:34;;;;;;;7.70;4.20;;;;;;;;;;10484824;28;20041;-76
2022/07/12 02:03:37;;;;;;;7.32;4.05;;;;;;;;;;10469223;28;20047;-75
2022/07/12 02:08:41;;;;;;;7.20;3.80;;;;;;;;;;10488249;28;20119;-75
2022/07/12 02:13:45;;;;;;;7.63;4.45;;;;;;;;;;10476259;28;20118;-75
2022/07/12 02:18:48;;;;;;;8.13;4.07;;;;;;;;;;10476506;28;20063;-76
2022/07/12 02:23:51;;;;;;;8.20;4.30;;;;;;;;;;10471239;28;20040;-76
2022/07/12 02:28:56;;;;;;;9.80;3.92;;;;;;;;;;10483571;28;20684;-76
2022/07/12 02:33:58;;;;;;;8.05;4.20;;;;;;;;;;10495601;28;20028;-77
2022/07/12 02:39:03;;;;;;;7.10;4.00;;;;;;;;;;10477706;28;20040;-76
2022/07/12 02:44:07;;;;;;;7.07;3.88;;;;;;;;;;10472754;28;20434;-77
2022/07/12 02:49:10;;;;;;;7.50;4.15;;;;;;;;;;10497260;28;20036;-77
2022/07/12 02:54:13;;;;;;;8.40;4.13;;;;;;;;;;10440403;28;1084686;-75
2022/07/12 02:59:17;;;;;;;9.30;4.18;;;;;;;;;;10475231;28;20071;-76
2022/07/12 03:04:19;;;;;;;7.10;3.83;;;;;;;;;;10495968;28;20105;-76
2022/07/12 03:09:22;;;;;;;8.48;3.83;;;;;;;;;;10494172;28;20465;-77
2022/07/12 03:14:26;;;;;;;8.33;4.23;;;;;;;;;;10489532;28;20044;-76
2022/07/12 03:19:29;;;;;;;7.28;4.05;;;;;;;;;;10474030;28;20088;-77
2022/07/12 03:24:32;;;;;;;8.98;4.80;;;;;;;;;;10479608;28;20504;-76
2022/07/12 03:29:36;;;;;;;8.63;4.65;;;;;;;;;;10479545;28;20400;-75
2022/07/12 03:34:39;;;;;;;7.28;3.88;;;;;;;;;;10478471;28;20040;-76
2022/07/12 03:39:42;;;;;;;12.50;4.10;;;;;;;;;;10487758;28;20375;-76
2022/07/12 03:44:46;;;;;;;9.68;4.43;;;;;;;;;;10486653;28;20393;-77
2022/07/12 03:49:48;;;;;;;9.30;4.55;;;;;;;;;;10471415;28;20163;-76
2022/07/12 03:54:53;;;;;;;9.10;4.63;;;;;;;;;;10492270;28;20060;-76
2022/07/12 03:59:58;;;;;;;7.53;4.20;;;;;;;;;;10471743;28;20476;-77
2022/07/12 04:05:01;;;;;;;8.73;4.25;;;;;;;;;;10484799;28;20062;-78
2022/07/12 04:10:04;;;;;;;8.75;3.97;;;;;;;;;;10488536;28;20452;-77
2022/07/12 04:15:09;;;;;;;9.65;4.40;;;;;;;;;;10494231;28;20131;-77
2022/07/12 04:20:13;;;;;;;7.72;3.45;;;;;;;;;;10485006;28;20139;-76
2022/07/12 04:25:15;;;;;;;8.37;4.13;;;;;;;;;;10473499;28;20037;-77
2022/07/12 04:30:20;;;;;;;6.85;4.13;;;;;;;;;;10472997;28;20341;-76
2022/07/12 04:35:23;;;;;;;14.65;4.35;;;;;;;;;;10496340;28;20478;-77
2022/07/12 04:40:26;;;;;;;7.78;4.20;;;;;;;;;;10475644;28;20091;-77
2022/07/12 04:45:30;;;;;;;7.82;4.07;;;;;;;;;;10463686;28;20063;-76
2022/07/12 04:50:33;;;;;;;9.52;4.15;;;;;;;;;;10484670;28;20715;-77
2022/07/12 04:55:36;;;;;;;8.77;4.27;;;;;;;;;;10472599;28;20033;-76
2022/07/12 05:00:40;;;;;;;8.15;4.15;;;;;;;;;;10471893;28;20087;-76
2022/07/12 05:05:42;;;;;;;9.00;4.30;;;;;;;;;;10482190;28;20044;-76
2022/07/12 05:10:46;;;;;;;8.32;4.60;;;;;;;;;;10478787;28;20071;-77
2022/07/12 05:15:51;;;;;;;10.85;4.45;;;;;;;;;;10477092;28;20420;-76
2022/07/12 05:20:53;;;;;;;7.70;4.10;;;;;;;;;;10472061;28;20051;-76
2022/07/12 05:25:56;;;;;;;7.85;4.28;;;;;;;;;;10464867;28;20075;-75
2022/07/12 05:31:00;;;;;;;7.43;4.00;;;;;;;;;;10466404;28;20451;-76
2022/07/12 05:36:04;;;;;;;7.40;3.55;;;;;;;;;;10475425;28;20037;-75
2022/07/12 05:41:07;;;;;;;4.60;2.75;;;;;;;;;;10487715;28;20063;-78
2022/07/12 05:46:12;;;;;;;4.53;2.75;;;;;;;;;;10472541;28;20123;-76
2022/07/12 05:56:35;;;;;;;3.55;2.40;;;;;;;;;;10468373;28;20040;-76
2022/07/12 06:01:39;;;;;;;2.60;1.70;;;;;;;;;;10476586;28;20362;-76
2022/07/12 06:06:42;;;;;;;3.50;2.05;;;;;;;;;;10500408;28;20037;-76
2022/07/12 06:11:44;;;;;;;4.33;2.20;;;;;;;;;;10481821;28;20044;-77
2022/07/12 06:16:49;;;;;;;5.40;1.90;;;;;;;;;;10476749;28;20072;-76
2022/07/12 06:21:51;;;;;;;4.80;1.90;;;;;;;;;;10478799;28;20043;-77
2022/07/12 06:26:54;;;;;;;2.53;1.93;;;;;;;;;;10496142;28;20051;-77
2022/07/12 06:31:58;;;;;;;2.65;1.60;;;;;;;;;;10491101;28;20028;-76
2022/07/12 06:37:01;;;;;;;2.40;1.70;;;;;;;;;;10490549;28;20029;-76
2022/07/12 06:42:04;;;;;;;4.63;1.93;;;;;;;;;;10493743;28;20401;-76
2022/07/12 06:47:09;;;;;;;4.55;1.67;;;;;;;;;;10478290;28;20484;-75
2022/07/12 06:52:11;;;;;;;1.98;1.45;;;;;;;;;;10495920;28;20039;-77
2022/07/12 06:57:14;;;;;;;2.60;1.30;;;;;;;;;;10488861;28;20081;-77
2022/07/12 07:02:18;;;;;;;1.53;1.30;;;;;;;;;;10475345;28;20117;-76
2022/07/12 07:07:21;;;;;;;1.10;0.85;;;;;;;;;;10480248;28;20105;-77
2022/07/12 07:12:24;;;;;;;1.97;1.20;;;;;;;;;;10489228;28;20044;-75
2022/07/12 07:17:29;;;;;;;1.30;1.08;;;;;;;;;;10464424;28;20064;-77
2022/07/12 07:22:33;;;;;;;3.35;2.60;;;;;;;;;;10471318;28;20040;-77
2022/07/12 07:27:38;;;;;;;2.33;1.33;;;;;;;;;;10475031;28;20031;-77
2022/07/12 07:32:42;;;;;;;1.25;0.50;;;;;;;;;;10464442;28;20044;-77
2022/07/12 07:37:46;;;;;;;2.00;1.60;;;;;;;;;;10472697;28;20058;-76
2022/07/12 07:42:48;;;;;;;;;;;;;;;;;;10465582;28;20591;-76
2022/07/12 07:47:53;;;;;;;8.80;4.37;;;;;;;;;;10472997;28;19924;-77
2022/07/12 07:53:15;;;;;;;6.10;2.70;;;;;;;;;;10458272;28;20059;-76
2022/07/12 07:58:20;;;;;;;2.75;1.50;;;;;;;;;;10487188;28;20039;-76
2022/07/12 08:03:25;;;;;;;3.25;1.75;;;;;;;;;;10485905;28;20043;-75
2022/07/12 08:08:28;;;;;;;3.17;1.70;;;;;;;;;;10470267;28;20165;-77
2022/07/12 08:13:51;;;;;;;2.65;1.67;;;;;;;;;;10471765;28;20044;-76
2022/07/12 08:18:56;;;;;;;4.32;1.65;;;;;;;;;;10480644;28;20036;-76
2022/07/12 08:23:58;;;;;;;3.75;1.40;;;;;;;;;;10470583;28;20110;-76
2022/07/12 08:29:01;;;;;;;1.50;1.40;;;;;;;;;;10481786;28;20134;-76
2022/07/12 08:34:05;;;;;;;1.20;1.10;;;;;;;;;;10460676;28;20040;-77
2022/07/12 08:39:09;;;;;;;2.58;1.30;;;;;;;;;;10464583;28;20665;-75
2022/07/12 08:44:12;;;;;;;2.20;1.40;;;;;;;;;;10464746;28;20056;-76
2022/07/12 08:49:16;;;;;;;1.40;1.30;;;;;;;;;;10451983;28;20128;-76
2022/07/12 08:54:18;;;;;;;1.40;1.25;;;;;;;;;;10468496;28;20115;-76
2022/07/12 08:59:22;;;;;;;2.40;1.50;;;;;;;;;;10472133;28;20116;-75
2022/07/12 09:04:27;;;;;;;1.27;1.17;;;;;;;;;;10478394;28;20063;-76
2022/07/12 09:09:31;;;;;;;2.65;1.50;;;;;;;;;;10456999;28;20056;-77
2022/07/12 09:14:35;;;;;;;1.75;1.65;;;;;;;;;;10477411;28;20158;-77
2022/07/12 09:19:39;;;;;;;1.38;1.27;;;;;;;;;;10467097;28;20173;-77
2022/07/12 09:24:42;;;;;;;1.23;1.00;;;;;;;;;;10485575;28;20036;-76
2022/07/12 09:29:48;;;;;;;3.63;1.20;;;;;;;;;;10469386;28;20052;-75
2022/07/12 09:40:21;;;;;;;4.93;1.60;;;;;;;;;;10472761;28;20385;-75
2022/07/12 09:45:25;;;;;;;1.52;1.25;;;;;;;;;;10476179;28;20196;-76
2022/07/12 09:50:30;;;;;;;1.13;1.10;;;;;;;;;;10467273;28;20057;-75
2022/07/12 09:55:34;;;;;;;3.20;1.38;;;;;;;;;;10475066;28;20403;-75
2022/07/12 10:00:37;;;;;;;1.77;1.58;;;;;;;;;;10463790;28;20677;-76
2022/07/12 10:05:42;;;;;;;1.48;1.20;;;;;;;;;;10484976;28;20530;-75
2022/07/12 10:10:45;;;;;;;2.45;1.40;;;;;;;;;;10466436;28;20401;-77
2022/07/12 10:15:49;;;;;;;1.90;1.80;;;;;;;;;;10459236;28;20043;-75
2022/07/12 10:20:53;;;;;;;2.08;1.90;;;;;;;;;;10460983;28;20182;-76
2022/07/12 10:25:57;;;;;;;1.40;1.30;;;;;;;;;;10464995;28;20040;-75
2022/07/12 10:31:05;;;;;;;2.55;1.30;;;;;;;;;;10458165;28;20412;-75
2022/07/12 10:36:09;;;;;;;1.20;1.10;;;;;;;;;;10488928;28;20036;-76
2022/07/12 10:41:18;;;;;;;2.95;1.70;;;;;;;;;;10470529;28;20090;-77
2022/07/12 10:46:25;;;;;;;1.42;1.20;;;;;;;;;;10469456;28;20364;-76
2022/07/12 10:51:29;;;;;;;1.92;1.15;;;;;;;;;;10492719;28;20579;-76
2022/07/12 10:56:37;;;;;;;1.40;1.23;;;;;;;;;;10490230;28;20051;-75
2022/07/12 11:01:45;;;;;;;2.05;1.75;;;;;;;;;;10467289;28;20728;-75
2022/07/12 11:06:50;;;;;;;2.80;1.10;;;;;;;;;;10486128;28;20041;-77
2022/07/12 11:11:53;;;;;;;2.75;1.73;;;;;;;;;;10488339;28;20065;-76
2022/07/12 11:16:57;;;;;;;1.50;1.40;;;;;;;;;;10490952;28;20078;-75
2022/07/12 11:22:01;;;;;;;2.28;1.45;;;;;;;;;;10461720;28;20059;-75
2022/07/12 11:27:06;;;;;;;0.90;0.90;;;;;;;;;;10485891;28;20058;-76
2022/07/12 11:32:09;;;;;;;0.80;0.80;;;;;;;;;;10464375;28;20056;-76
2022/07/12 11:37:16;;;;;;;1.95;1.10;;;;;;;;;;10481573;28;20048;-75
2022/07/12 11:42:18;;;;;;;1.48;1.05;;;;;;;;;;10460094;28;20128;-78
2022/07/12 11:47:22;;;;;;;1.50;1.40;;;;;;;;;;10471445;28;20033;-76
2022/07/12 11:52:26;;;;;;;1.77;1.42;;;;;;;;;;10462867;28;20411;-75
2022/07/12 11:57:29;;;;;;;0.60;0.60;;;;;;;;;;10457667;28;20040;-77
2022/07/12 12:02:33;;;;;;;2.40;1.10;;;;;;;;;;10492258;28;20349;-76
2022/07/12 12:07:37;;;;;;;3.08;0.90;;;;;;;;;;10475553;28;20075;-76
2022/07/12 12:12:42;;;;;;;2.72;0.95;;;;;;;;;;10465398;28;20032;-77
2022/07/12 12:17:46;;;;;;;1.20;1.10;;;;;;;;;;10488623;28;20044;-75
2022/07/12 12:22:53;;;;;;;0.80;0.80;;;;;;;;;;10478137;28;20037;-76
2022/07/12 12:27:56;;;;;;;1.40;1.10;;;;;;;;;;10477693;28;20059;-76
2022/07/12 12:33:32;;;;;;;1.48;0.73;;;;;;;;;;10474189;28;20504;-77
2022/07/12 12:38:37;;;;;;;1.00;0.90;;;;;;;;;;10461831;28;20136;-77
2022/07/12 12:43:41;;;;;;;1.80;1.20;;;;;;;;;;10464983;28;20044;-77
2022/07/12 12:48:48;;;;;;;2.10;1.27;;;;;;;;;;10484538;28;20040;-77
2022/07/12 12:53:57;;;;;;;2.47;1.27;;;;;;;;;;10483843;28;20102;-76
2022/07/12 12:59:00;;;;;;;1.27;1.20;;;;;;;;;;10471628;28;20458;-76
2022/07/12 13:04:03;;;;;;;8.95;4.32;;;;;;;;;;10474821;28;20120;-74
2022/07/12 13:09:08;;;;;;;1.00;1.00;;;;;;;;;;10475730;28;20166;-74
2022/07/12 13:14:11;;;;;;;1.27;0.80;;;;;;;;;;10496000;28;20699;-75
2022/07/12 13:19:14;;;;;;;1.10;1.00;;;;;;;;;;10479974;28;20048;-76
2022/07/12 13:24:19;;;;;;;0.98;0.80;;;;;;;;;;10495136;28;20500;-76
2022/07/12 13:29:22;;;;;;;1.58;1.45;;;;;;;;;;10502830;28;20100;-74
2022/07/12 13:34:25;;;;;;;0.98;0.80;;;;;;;;;;10490690;28;20123;-77
2022/07/12 13:44:49;;;;;;;1.75;0.90;;;;;;;;;;10483698;28;20044;-76
2022/07/12 13:49:52;;;;;;;2.25;1.10;;;;;;;;;;10489604;28;20028;-74
2022/07/12 13:55:01;;;;;;;1.90;0.77;;;;;;;;;;10494246;28;20046;-75
2022/07/12 14:00:08;;;;;;;1.48;0.80;;;;;;;;;;10485926;28;20036;-74
2022/07/12 14:05:12;;;;;;;1.98;1.00;;;;;;;;;;10493089;28;20066;-75
2022/07/12 14:10:16;;;;;;;1.13;0.80;;;;;;;;;;10495163;28;20773;-77
2022/07/12 14:20:51;;;;;;;1.42;0.90;;;;;;;;;;10638289;27;20405;-76
2022/07/12 14:25:54;;;;;;;1.45;1.13;;;;;;;;;;10676807;27;20405;-74
2022/07/12 14:30:57;;;;;;;1.10;0.90;;;;;;;;;;10680558;27;20107;-76
2022/07/12 14:36:01;;;;;;;1.10;0.98;;;;;;;;;;10650185;27;20356;-75
2022/07/12 14:41:04;;;;;;;1.48;0.98;;;;;;;;;;10657275;27;20069;-75
2022/07/12 14:46:07;;;;;;;2.35;0.90;;;;;;;;;;10657239;27;20050;-75
2022/07/12 14:51:11;;;;;;;1.77;0.80;;;;;;;;;;10650637;27;20046;-75
2022/07/12 14:56:14;;;;;;;2.00;1.20;;;;;;;;;;10669262;27;20042;-76
2022/07/12 15:01:17;;;;;;;0.70;0.70;;;;;;;;;;10653106;27;20235;-76
2022/07/12 15:06:22;;;;;;;1.90;1.00;;;;;;;;;;10676194;27;20031;-75
2022/07/12 15:11:24;;;;;;;0.80;0.80;;;;;;;;;;10676684;27;20031;-74
2022/07/12 15:16:27;;;;;;;1.08;0.80;;;;;;;;;;10649006;27;20082;-77
2022/07/12 15:21:31;;;;;;;1.70;1.05;;;;;;;;;;10649887;27;20030;-75
2022/07/12 15:26:34;;;;;;;2.38;0.90;;;;;;;;;;10645759;27;20066;-77
2022/07/12 15:31:36;;;;;;;1.73;1.00;;;;;;;;;;10630746;27;20099;-74
2022/07/12 15:36:41;;;;;;;2.63;1.10;;;;;;;;;;10642201;27;20039;-75
2022/07/12 15:41:43;;;;;;;2.15;0.90;;;;;;;;;;10645231;27;20037;-76
2022/07/12 15:46:46;;;;;;;1.17;1.10;;;;;;;;;;10644184;27;20039;-77
2022/07/12 15:57:10;;;;;;;1.00;0.90;;;;;;;;;;10623142;27;20466;-76
2022/07/12 16:02:13;;;;;;;1.45;0.98;;;;;;;;;;10640918;27;20055;-77
2022/07/12 16:07:17;;;;;;;0.90;0.90;;;;;;;;;;10633964;27;20521;-76
2022/07/12 16:12:20;;;;;;;1.98;1.20;;;;;;;;;;10629220;27;20033;-75
2022/07/12 16:17:23;;;;;;;1.75;1.40;;;;;;;;;;10642203;27;20049;-76
2022/07/12 16:22:27;;;;;;;1.27;1.08;;;;;;;;;;10627296;27;20034;-76
2022/07/12 16:27:29;;;;;;;1.45;1.35;;;;;;;;;;10647445;27;20097;-77
2022/07/12 16:32:35;;;;;;;3.33;1.10;;;;;;;;;;10645243;27;20035;-74
2022/07/12 16:37:47;;;;;;;0.90;0.90;;;;;;;;;;10630059;27;20107;-76
2022/07/12 16:42:50;;;;;;;1.10;0.82;;;;;;;;;;10627704;27;20099;-75
2022/07/12 16:47:52;;;;;;;;;;;;;;;;;;10652555;27;20054;-75
2022/07/12 16:52:56;;;;;;;1.37;0.97;;;;;;;;;;10631717;27;19946;-76
2022/07/12 16:57:59;;;;;;;3.05;1.60;;;;;;;;;;10623174;27;20034;-76
2022/07/12 17:03:02;;;;;;;1.95;1.15;;;;;;;;;;10628844;27;21175;-75
2022/07/12 17:08:06;;;;;;;1.35;1.25;;;;;;;;;;10645482;27;20035;-75
2022/07/12 17:13:09;;;;;;;2.08;1.30;;;;;;;;;;10627509;27;20047;-77
2022/07/12 17:18:12;;;;;;;1.67;1.20;;;;;;;;;;10643019;27;20125;-75
2022/07/12 17:23:14;;;;;;;;;;;;;;;;;;10643142;27;20125;-75
2022/07/12 17:28:19;;;;;;;1.42;1.20;;;;;;;;;;10645056;27;20595;-74
2022/07/12 17:33:22;;;;;;;1.70;1.00;;;;;;;;;;10635656;27;20039;-76
2022/07/12 17:38:26;;;;;;;6.82;3.22;;;;;;;;;;10625865;27;20035;-76
2022/07/12 17:43:30;;;;;;;1.00;0.90;;;;;;;;;;10631158;27;20067;-76
2022/07/12 17:48:33;;;;;;;2.75;1.23;;;;;;;;;;10647135;27;20436;-75
2022/07/12 17:53:35;;;;;;;4.20;2.22;;;;;;;;;;10620801;27;20039;-76
2022/07/12 17:58:39;;;;;;;;;;;;;;;;;;10639182;27;20470;-75
2022/07/12 18:03:44;;;;;;;2.05;1.52;;;;;;;;;;10634148;27;19929;-77
2022/07/12 18:08:52;;;;;;;3.83;2.38;;;;;;;;;;10639456;27;20027;-76
2022/07/12 18:19:19;;;;;;;2.20;1.30;;;;;;;;;;10624085;27;20031;-77
2022/07/12 18:24:23;;;;;;;1.33;1.05;;;;;;;;;;10638645;27;20062;-75
2022/07/12 18:29:26;;;;;;;2.22;1.20;;;;;;;;;;10624387;27;20070;-76
2022/07/12 18:34:30;;;;;;;3.58;1.83;;;;;;;;;;10641895;27;20101;-77
2022/07/12 18:39:33;;;;;;;1.98;1.05;;;;;;;;;;10642530;27;20035;-76
2022/07/12 18:44:36;;;;;;;3.05;1.90;;;;;;;;;;10645550;27;20046;-76
2022/07/12 18:49:41;;;;;;;4.20;1.83;;;;;;;;;;10628173;27;20060;-77
2022/07/12 18:54:43;;;;;;;2.50;1.70;;;;;;;;;;10621449;27;20047;-77
2022/07/12 18:59:46;;;;;;;9.40;3.75;;;;;;;;;;10636828;27;20026;-77
2022/07/12 19:04:50;;;;;;;5.90;3.47;;;;;;;;;;10622185;27;20419;-80
2022/07/12 19:09:53;;;;;;;5.70;3.20;;;;;;;;;;10647542;27;20521;-76
2022/07/12 19:14:56;;;;;;;6.35;3.28;;;;;;;;;;10656438;27;20046;-76
2022/07/12 19:20:00;;;;;;;6.00;2.55;;;;;;;;;;10651218;27;20039;-76
2022/07/12 19:25:04;;;;;;;29.08;13.55;;;;;;;;;;10637721;27;20359;-75
2022/07/12 19:30:08;;;;;;;5.70;2.17;;;;;;;;;;10621335;27;20509;-76
2022/07/12 19:35:12;;;;;;;18.15;7.47;;;;;;;;;;10650355;27;20396;-75
2022/07/12 19:40:15;;;;;;;14.60;6.90;;;;;;;;;;10647068;27;20042;-77
2022/07/12 19:45:18;;;;;;;9.00;3.75;;;;;;;;;;10643670;27;20118;-72
2022/07/12 19:50:28;;;;;;;6.00;3.03;;;;;;;;;;10640236;27;20039;-75
2022/07/12 19:55:31;;;;;;;4.47;2.53;;;;;;;;;;10633114;27;20077;-75
2022/07/12 20:00:34;;;;;;;8.10;3.70;;;;;;;;;;10644794;27;20072;-74
2022/07/12 20:05:39;;;;;;;12.45;5.60;;;;;;;;;;10623336;27;20452;-74
2022/07/12 20:10:42;;;;;;;11.57;5.10;;;;;;;;;;10640395;27;20516;-73
2022/07/12 20:15:45;;;;;;;;;;;;;;;;;;10644656;27;20483;-73
2022/07/12 20:20:50;;;;;;;8.57;4.32;;;;;;;;;;10624853;27;19946;-74
2022/07/12 20:25:53;;;;;;;7.45;4.13;;;;;;;;;;10627936;27;20494;-73
2022/07/12 20:30:58;;;;;;;7.50;2.90;;;;;;;;;;10647066;27;20062;-77
2022/07/12 20:36:03;;;;;;;16.55;6.10;;;;;;;;;;10644842;27;20827;-75
2022/07/12 20:41:06;;;;;;;12.55;4.70;;;;;;;;;;10642100;27;20042;-77
2022/07/12 20:46:16;;;;;;;9.82;3.90;;;;;;;;;;10623118;27;20116;-77
2022/07/12 20:51:22;;;;;;;10.10;4.90;;;;;;;;;;10620394;27;20027;-77
2022/07/12 20:56:25;;;;;;;8.73;4.20;;;;;;;;;;10648016;27;20030;-77
2022/07/12 21:01:28;;;;;;;13.07;4.53;;;;;;;;;;10642164;27;20066;-76
2022/07/12 21:06:32;;;;;;;8.23;3.47;;;;;;;;;;10625741;27;20156;-78
2022/07/12 21:11:36;;;;;;;6.22;3.13;;;;;;;;;;10628461;27;20068;-77
2022/07/12 21:16:40;;;;;;;8.27;3.28;;;;;;;;;;10646765;27;20073;-77
2022/07/12 21:21:44;;;;;;;24.17;10.32;;;;;;;;;;10640332;27;20103;-77
2022/07/12 21:26:47;;;;;;;9.20;4.10;;;;;;;;;;10628230;27;20091;-74
2022/07/12 21:31:50;;;;;;;7.90;4.30;;;;;;;;;;10640365;27;20095;-77
2022/07/12 21:36:54;;;;;;;9.15;3.70;;;;;;;;;;10641410;27;20660;-78
2022/07/12 21:41:56;;;;;;;12.57;4.10;;;;;;;;;;10618815;27;20074;-77
2022/07/12 21:46:59;;;;;;;12.27;4.20;;;;;;;;;;10640807;27;20459;-75
2022/07/12 21:52:04;;;;;;;8.95;3.80;;;;;;;;;;10640345;27;20490;-76
2022/07/12 21:57:06;;;;;;;10.13;3.67;;;;;;;;;;10635022;27;20077;-76
2022/07/12 22:02:09;;;;;;;9.57;3.37;;;;;;;;;;10638608;27;20035;-76
2022/07/12 22:07:13;;;;;;;8.80;3.67;;;;;;;;;;10641718;27;20141;-76
2022/07/12 22:12:17;;;;;;;7.70;3.00;;;;;;;;;;10619014;27;20157;-76
2022/07/12 22:17:19;;;;;;;10.17;3.90;;;;;;;;;;10618228;27;20107;-77
2022/07/12 22:22:24;;;;;;;10.00;4.33;;;;;;;;;;10639836;27;20395;-76
2022/07/12 22:27:26;;;;;;;8.57;3.60;;;;;;;;;;10620728;27;20129;-75
2022/07/12 22:32:31;;;;;;;8.80;3.53;;;;;;;;;;10622256;27;20039;-78
2022/07/12 22:37:35;;;;;;;6.53;3.10;;;;;;;;;;10643073;27;20382;-77
2022/07/12 22:42:38;;;;;;;6.72;2.58;;;;;;;;;;10629734;27;20061;-76
2022/07/12 22:47:41;;;;;;;6.47;2.80;;;;;;;;;;10655293;27;20043;-77
2022/07/12 22:52:45;;;;;;;7.83;3.10;;;;;;;;;;10653469;27;20055;-77
2022/07/12 22:57:47;;;;;;;8.27;2.88;;;;;;;;;;10634174;27;20062;-76
2022/07/12 23:02:50;;;;;;;9.48;3.00;;;;;;;;;;10624995;27;20114;-76
2022/07/12 23:07:55;;;;;;;5.10;2.58;;;;;;;;;;10649182;27;20114;-76
2022/07/12 23:12:57;;;;;;;4.78;2.38;;;;;;;;;;10617816;27;20091;-77
2022/07/12 23:18:00;;;;;;;5.88;2.33;;;;;;;;;;10632211;27;20571;-77
2022/07/12 23:23:04;;;;;;;7.67;3.17;;;;;;;;;;10643021;27;20045;-77
2022/07/12 23:28:07;;;;;;;6.55;3.20;;;;;;;;;;10650086;27;20545;-77
2022/07/12 23:33:09;;;;;;;7.72;3.63;;;;;;;;;;10624105;27;20398;-77
2022/07/12 23:38:13;;;;;;;7.55;2.90;;;;;;;;;;10655415;27;20042;-76
2022/07/12 23:43:16;;;;;;;5.40;2.72;;;;;;;;;;10628775;27;20401;-78
2022/07/12 23:48:19;;;;;;;4.57;2.70;;;;;;;;;;10634253;27;20042;-75
2022/07/12 23:53:23;;;;;;;6.60;2.78;;;;;;;;;;10651294;27;20095;-76
2022/07/12 23:58:25;;;;;;;5.78;2.72;;;;;;;;;;10629925;27;20590;-76
